createdAt,value
2023-05-11T00:00:44.801Z,99.90
2023-05-11T00:03:12.964Z,99.90
2023-05-11T00:05:42.113Z,99.90
2023-05-11T00:08:10.136Z,99.90
2023-05-11T00:10:38.114Z,99.90
2023-05-11T00:13:09.901Z,99.90
2023-05-11T00:15:37.872Z,99.90
2023-05-11T00:18:06.264Z,99.90
2023-05-11T00:20:34.247Z,99.90
2023-05-11T00:23:02.496Z,99.90
2023-05-11T00:25:30.594Z,99.90
2023-05-11T00:27:58.536Z,99.90
2023-05-11T00:30:27.836Z,99.90
2023-05-11T00:32:55.877Z,99.90
2023-05-11T00:35:24.200Z,99.90
2023-05-11T00:37:52.185Z,99.90
2023-05-11T00:40:20.344Z,99.90
2023-05-11T00:42:48.285Z,99.90
2023-05-11T00:45:16.972Z,99.90
2023-05-11T00:47:46.421Z,99.90
2023-05-11T00:50:14.586Z,99.90
2023-05-11T00:52:43.045Z,99.90
2023-05-11T00:55:12.336Z,99.90
2023-05-11T00:57:40.753Z,99.90
2023-05-11T01:00:10.327Z,99.90
2023-05-11T01:02:38.716Z,99.90
2023-05-11T01:05:09.099Z,99.90
2023-05-11T01:07:45.014Z,99.90
2023-05-11T01:10:20.750Z,99.90
2023-05-11T01:12:56.723Z,99.90
2023-05-11T01:15:31.099Z,99.90
2023-05-11T01:18:06.922Z,99.90
2023-05-11T01:20:37.153Z,99.90
2023-05-11T01:23:41.645Z,99.90
2023-05-11T01:26:45.378Z,99.90
2023-05-11T01:29:59.222Z,99.90
2023-05-11T01:32:31.435Z,99.90
2023-05-11T01:35:04.564Z,99.90
2023-05-11T01:37:33.762Z,99.90
2023-05-11T01:40:05.928Z,99.90
2023-05-11T01:42:39.521Z,99.90
2023-05-11T01:45:09.623Z,99.90
2023-05-11T01:47:41.556Z,99.90
2023-05-11T01:50:10.477Z,99.90
2023-05-11T01:52:40.886Z,99.90
2023-05-11T01:55:10.951Z,99.90
2023-05-11T01:57:39.885Z,99.90
2023-05-11T02:00:09.699Z,99.90
2023-05-11T02:02:47.651Z,99.90
2023-05-11T02:05:19.555Z,99.90
2023-05-11T02:07:50.015Z,99.90
2023-05-11T02:10:19.655Z,99.90
2023-05-11T02:12:52.177Z,99.90
2023-05-11T02:15:23.218Z,99.90
2023-05-11T02:17:53.926Z,99.90
2023-05-11T02:20:22.339Z,99.90
2023-05-11T02:22:51.362Z,99.90
2023-05-11T02:25:20.584Z,99.90
2023-05-11T02:27:49.758Z,99.90
2023-05-11T02:30:18.286Z,99.90
2023-05-11T02:32:52.997Z,99.90
2023-05-11T02:35:26.488Z,99.90
2023-05-11T02:37:58.797Z,99.90
2023-05-11T02:40:35.077Z,99.90
2023-05-11T02:43:08.234Z,99.90
2023-05-11T02:45:38.311Z,99.90
2023-05-11T02:48:13.958Z,99.90
2023-05-11T02:50:44.515Z,99.90
2023-05-11T02:53:18.086Z,99.90
2023-05-11T02:55:47.683Z,99.90
2023-05-11T02:58:16.574Z,99.90
2023-05-11T03:00:48.944Z,99.90
2023-05-11T03:03:17.586Z,99.90
2023-05-11T03:05:47.354Z,99.90
2023-05-11T03:08:15.459Z,99.90
2023-05-11T03:10:45.349Z,99.90
2023-05-11T03:13:14.076Z,99.90
2023-05-11T03:15:42.973Z,99.90
2023-05-11T03:18:12.367Z,99.90
2023-05-11T03:20:42.627Z,99.90
2023-05-11T03:23:12.931Z,99.90
2023-05-11T03:25:42.982Z,99.90
2023-05-11T03:28:14.683Z,99.90
2023-05-11T03:30:50.322Z,99.90
2023-05-11T03:33:18.580Z,99.90
2023-05-11T03:35:48.750Z,99.90
2023-05-11T03:38:24.640Z,99.90
2023-05-11T03:40:55.750Z,99.90
2023-05-11T03:43:24.379Z,99.90
2023-05-11T03:45:57.708Z,99.90
2023-05-11T03:48:27.219Z,99.90
2023-05-11T03:50:56.259Z,99.90
2023-05-11T03:53:26.140Z,99.90
2023-05-11T03:55:54.822Z,99.90
2023-05-11T03:58:23.769Z,99.90
2023-05-11T04:00:52.040Z,99.90
2023-05-11T04:03:23.322Z,99.90
2023-05-11T04:05:51.382Z,99.90
2023-05-11T04:08:19.630Z,99.90
2023-05-11T04:10:49.005Z,99.90
2023-05-11T04:13:16.982Z,99.90
2023-05-11T04:15:44.930Z,99.90
2023-05-11T04:18:12.944Z,99.90
2023-05-11T04:20:40.903Z,99.90
2023-05-11T04:23:10.406Z,99.90
2023-05-11T04:25:38.619Z,99.90
2023-05-11T04:28:08.454Z,99.90
2023-05-11T04:30:36.405Z,99.90
2023-05-11T04:33:05.122Z,99.90
2023-05-11T04:35:33.594Z,99.90
2023-05-11T04:38:01.653Z,99.90
2023-05-11T04:40:29.791Z,99.90
2023-05-11T04:42:57.820Z,99.90
2023-05-11T04:45:27.268Z,99.90
2023-05-11T04:47:55.932Z,99.90
2023-05-11T04:50:25.883Z,99.90
2023-05-11T04:52:54.601Z,99.90
2023-05-11T04:55:22.747Z,99.90
2023-05-11T04:57:51.636Z,99.90
2023-05-11T05:00:23.053Z,99.90
2023-05-11T05:02:52.457Z,99.90
2023-05-11T05:05:20.676Z,99.90
2023-05-11T05:07:50.067Z,99.90
2023-05-11T05:10:18.809Z,99.90
2023-05-11T05:12:47.257Z,99.90
2023-05-11T05:15:16.035Z,99.90
2023-05-11T05:17:44.270Z,99.90
2023-05-11T05:20:14.183Z,99.90
2023-05-11T05:22:42.296Z,99.90
2023-05-11T05:25:11.776Z,99.90
2023-05-11T05:27:39.914Z,99.90
2023-05-11T05:30:11.449Z,99.90
2023-05-11T05:32:39.832Z,99.90
2023-05-11T05:35:08.606Z,99.90
2023-05-11T05:37:38.237Z,99.90
2023-05-11T05:40:08.209Z,99.90
2023-05-11T05:42:42.555Z,99.90
2023-05-11T05:45:14.859Z,99.90
2023-05-11T05:47:43.353Z,99.90
2023-05-11T05:50:11.970Z,99.90
2023-05-11T05:52:44.310Z,99.90
2023-05-11T05:55:13.803Z,99.90
2023-05-11T05:57:42.564Z,99.90
2023-05-11T06:00:13.318Z,99.90
2023-05-11T06:02:41.356Z,99.90
2023-05-11T06:05:13.595Z,99.90
2023-05-11T06:07:41.585Z,99.90
2023-05-11T06:10:11.001Z,99.90
2023-05-11T06:12:41.884Z,99.90
2023-05-11T06:15:10.830Z,99.90
2023-05-11T06:17:41.466Z,99.90
2023-05-11T06:20:10.576Z,99.90
2023-05-11T06:22:39.067Z,99.90
2023-05-11T06:25:08.433Z,99.90
2023-05-11T06:27:37.849Z,99.90
2023-05-11T06:30:07.457Z,99.90
2023-05-11T06:32:38.179Z,99.90
2023-05-11T06:35:07.720Z,99.90
2023-05-11T06:37:35.931Z,99.90
2023-05-11T06:40:06.661Z,99.90
2023-05-11T06:42:35.632Z,99.90
2023-05-11T06:45:14.178Z,99.90
2023-05-11T06:47:43.887Z,99.90
2023-05-11T06:50:14.904Z,99.90
2023-05-11T06:52:42.947Z,99.90
2023-05-11T06:55:15.058Z,99.90
2023-05-11T06:57:43.210Z,99.90
2023-05-11T07:00:13.507Z,99.90
2023-05-11T07:02:41.477Z,99.90
2023-05-11T07:05:09.883Z,99.90
2023-05-11T07:07:38.022Z,99.90
2023-05-11T07:10:09.337Z,99.90
2023-05-11T07:12:37.292Z,99.90
2023-05-11T07:15:05.879Z,99.90
2023-05-11T07:17:35.413Z,99.90
2023-05-11T07:20:03.778Z,99.90
2023-05-11T07:22:31.801Z,99.90
2023-05-11T07:25:01.670Z,99.90
2023-05-11T07:27:31.100Z,99.90
2023-05-11T07:29:59.224Z,99.90
2023-05-11T07:32:27.619Z,99.90
2023-05-11T07:34:57.220Z,99.90
2023-05-11T07:37:25.327Z,99.90
2023-05-11T07:39:54.300Z,99.90
2023-05-11T07:42:22.526Z,99.90
2023-05-11T07:44:50.572Z,99.90
2023-05-11T07:47:20.874Z,99.90
2023-05-11T07:49:49.061Z,99.90
2023-05-11T07:52:18.763Z,99.90
2023-05-11T07:54:49.498Z,99.90
2023-05-11T07:57:17.647Z,99.90
2023-05-11T07:59:45.670Z,99.90
2023-05-11T08:02:13.778Z,99.90
2023-05-11T08:04:45.108Z,99.90
2023-05-11T08:07:13.243Z,99.90
2023-05-11T08:09:43.972Z,99.90
2023-05-11T08:12:12.181Z,99.90
2023-05-11T08:14:43.541Z,99.90
2023-05-11T08:17:11.904Z,99.90
2023-05-11T08:19:39.881Z,99.90
2023-05-11T08:22:08.001Z,99.90
2023-05-11T08:24:36.045Z,99.90
2023-05-11T08:27:06.069Z,99.90
2023-05-11T08:29:34.060Z,99.90
2023-05-11T08:32:02.135Z,99.90
2023-05-11T08:34:30.450Z,99.90
2023-05-11T08:37:01.545Z,99.90
2023-05-11T08:39:43.744Z,99.90
2023-05-11T08:42:17.876Z,99.90
2023-05-11T08:44:46.501Z,99.90
2023-05-11T08:49:46.320Z,99.90
2023-05-11T08:52:17.108Z,99.90
2023-05-11T08:54:47.957Z,99.90
2023-05-11T08:57:18.461Z,99.90
2023-05-11T08:59:47.459Z,99.90
2023-05-11T09:02:19.098Z,99.90
2023-05-11T09:04:49.001Z,99.90
2023-05-11T09:07:18.436Z,99.90
2023-05-11T09:09:48.064Z,99.90
2023-05-11T09:12:17.543Z,99.90
2023-05-11T09:14:47.720Z,99.90
2023-05-11T09:17:15.803Z,99.90
2023-05-11T09:20:00.640Z,99.90
2023-05-11T09:22:35.383Z,99.90
2023-05-11T09:25:05.723Z,99.90
2023-05-11T09:27:36.099Z,99.90
2023-05-11T09:30:12.378Z,99.90
2023-05-11T09:32:51.550Z,99.90
2023-05-11T09:35:23.928Z,99.90
2023-05-11T09:37:59.272Z,99.90
2023-05-11T09:40:33.243Z,99.90
2023-05-11T09:43:03.952Z,99.90
2023-05-11T09:45:39.382Z,99.90
2023-05-11T09:48:08.790Z,99.90
2023-05-11T09:50:37.362Z,99.90
2023-05-11T09:53:05.537Z,99.90
2023-05-11T09:55:35.231Z,99.90
2023-05-11T09:58:04.853Z,99.90
2023-05-11T10:00:33.648Z,99.90
2023-05-11T10:03:06.064Z,99.90
2023-05-11T10:05:35.697Z,99.90
2023-05-11T10:08:06.224Z,99.90
2023-05-11T10:10:35.545Z,99.90
2023-05-11T10:13:05.067Z,99.90
2023-05-11T10:15:36.597Z,99.90
2023-05-11T10:18:07.022Z,99.90
2023-05-11T10:20:35.321Z,99.90
2023-05-11T10:23:04.050Z,99.90
2023-05-11T10:25:34.020Z,99.90
2023-05-11T10:28:02.362Z,99.90
2023-05-11T10:30:32.546Z,99.90
2023-05-11T10:33:02.502Z,99.90
2023-05-11T10:35:31.763Z,99.90
2023-05-11T10:38:01.959Z,99.90
2023-05-11T10:40:30.746Z,99.90
2023-05-11T10:43:19.905Z,99.90
2023-05-11T10:45:56.402Z,99.90
2023-05-11T10:48:53.841Z,99.90
2023-05-11T10:51:48.966Z,99.90
2023-05-11T10:54:34.408Z,99.90
2023-05-11T10:57:14.259Z,99.90
2023-05-11T11:00:15.426Z,99.90
2023-05-11T11:02:46.071Z,99.90
2023-05-11T11:05:17.929Z,99.90
2023-05-11T11:07:58.872Z,99.90
2023-05-11T11:10:35.627Z,99.90
2023-05-11T11:13:06.505Z,99.90
2023-05-11T11:16:09.483Z,99.90
2023-05-11T11:18:39.103Z,99.90
2023-05-11T11:21:07.203Z,99.90
2023-05-11T11:23:49.203Z,99.90
2023-05-11T11:26:21.287Z,99.90
2023-05-11T11:29:10.149Z,99.90
2023-05-11T11:31:38.891Z,99.90
2023-05-11T11:34:37.529Z,99.90
2023-05-11T11:37:09.877Z,99.90
2023-05-11T11:40:08.945Z,99.90
2023-05-11T11:42:44.165Z,99.90
2023-05-11T11:45:33.229Z,99.90
2023-05-11T11:48:07.839Z,99.90
2023-05-11T11:50:37.377Z,99.90
2023-05-11T11:53:05.502Z,99.90
2023-05-11T11:55:51.009Z,99.90
2023-05-11T11:58:58.091Z,99.90
2023-05-11T12:01:28.145Z,99.90
2023-05-11T12:04:25.606Z,99.90
2023-05-11T12:06:59.785Z,99.90
2023-05-11T12:09:28.393Z,99.90
2023-05-11T12:11:58.373Z,99.90
2023-05-11T12:14:27.292Z,99.90
2023-05-11T12:17:03.441Z,99.90
2023-05-11T12:19:32.038Z,99.90
2023-05-11T12:22:01.912Z,99.90
2023-05-11T12:24:29.917Z,99.90
2023-05-11T12:26:58.848Z,99.90
2023-05-11T12:29:27.007Z,99.90
2023-05-11T12:31:55.987Z,99.90
2023-05-11T12:34:24.471Z,99.90
2023-05-11T12:36:54.453Z,99.90
2023-05-11T12:39:25.388Z,99.90
2023-05-11T12:41:54.780Z,99.90
2023-05-11T12:44:24.677Z,99.90
2023-05-11T12:46:53.325Z,99.90
2023-05-11T12:49:26.373Z,99.90
2023-05-11T12:52:03.944Z,99.90
2023-05-11T12:54:34.911Z,99.90
2023-05-11T12:57:04.998Z,99.90
2023-05-11T12:59:38.125Z,99.90
2023-05-11T13:02:11.397Z,99.90
2023-05-11T13:04:41.322Z,99.90
2023-05-11T13:07:10.158Z,99.90
2023-05-11T13:09:40.183Z,99.90
2023-05-11T13:12:13.754Z,99.90
2023-05-11T13:14:45.107Z,99.90
2023-05-11T13:17:13.337Z,99.90
2023-05-11T13:19:41.886Z,99.90
2023-05-11T13:22:12.594Z,99.90
2023-05-11T13:24:41.957Z,99.90
2023-05-11T13:27:09.960Z,99.90
2023-05-11T13:29:41.005Z,99.90
2023-05-11T13:32:09.313Z,99.90
2023-05-11T13:34:37.381Z,99.90
2023-05-11T13:37:06.185Z,99.90
2023-05-11T13:39:34.115Z,99.90
2023-05-11T13:42:05.430Z,99.90
2023-05-11T13:44:33.449Z,99.90
2023-05-11T13:47:01.491Z,99.90
2023-05-11T13:49:29.691Z,99.90
2023-05-11T13:51:57.719Z,99.90
2023-05-11T13:54:25.749Z,99.90
2023-05-11T13:56:53.886Z,99.90
2023-05-11T13:59:23.249Z,99.90
2023-05-11T14:01:51.587Z,99.90
2023-05-11T14:04:20.554Z,99.90
2023-05-11T14:06:48.914Z,99.90
2023-05-11T14:09:16.957Z,99.90
2023-05-11T14:11:45.275Z,99.90
2023-05-11T14:14:14.663Z,99.90
2023-05-11T14:16:44.166Z,99.90
2023-05-11T14:19:12.743Z,99.90
2023-05-11T14:21:40.877Z,99.90
2023-05-11T14:24:12.546Z,98.90
2023-05-11T14:26:42.325Z,99.10
2023-05-11T14:29:10.436Z,99.50
2023-05-11T14:31:39.014Z,99.80
2023-05-11T14:34:08.543Z,98.30
2023-05-11T14:36:37.834Z,98.10
2023-05-11T14:39:06.153Z,97.70
2023-05-11T14:41:34.502Z,97.80
2023-05-11T14:44:02.606Z,97.80
2023-05-11T14:46:30.967Z,98.60
2023-05-11T14:48:59.047Z,99.80
2023-05-11T14:51:28.666Z,99.90
2023-05-11T14:53:56.791Z,99.90
2023-05-11T14:56:25.178Z,99.90
2023-05-11T14:58:53.594Z,99.90
2023-05-11T15:01:21.905Z,99.90
2023-05-11T15:03:50.061Z,99.90
2023-05-11T15:06:21.559Z,99.90
2023-05-11T15:08:51.788Z,99.90
2023-05-11T15:11:20.059Z,99.90
2023-05-11T15:13:48.477Z,99.90
2023-05-11T15:16:19.659Z,99.90
2023-05-11T15:18:47.790Z,99.90
2023-05-11T15:21:16.028Z,99.90
2023-05-11T15:23:44.281Z,99.90
2023-05-11T15:26:14.599Z,99.90
2023-05-11T15:28:42.616Z,99.90
2023-05-11T15:31:10.673Z,99.90
2023-05-11T15:33:39.461Z,99.90
2023-05-11T15:36:13.224Z,99.90
2023-05-11T15:38:41.679Z,99.90
2023-05-11T15:41:10.169Z,99.90
2023-05-11T15:43:39.661Z,99.90
2023-05-11T15:46:08.831Z,99.90
2023-05-11T15:48:37.089Z,99.90
2023-05-11T15:51:05.774Z,99.90
2023-05-11T15:53:33.978Z,99.90
2023-05-11T15:56:02.097Z,99.90
2023-05-11T15:58:30.541Z,99.90
2023-05-11T16:01:00.223Z,99.90
2023-05-11T16:03:29.009Z,99.90
2023-05-11T16:05:59.665Z,99.90
2023-05-11T16:08:27.919Z,99.90
2023-05-11T16:10:56.280Z,99.90
2023-05-11T16:13:24.787Z,99.90
2023-05-11T16:15:53.117Z,99.90
2023-05-11T16:18:22.603Z,99.90
2023-05-11T16:20:51.024Z,99.90
2023-05-11T16:23:19.011Z,99.90
2023-05-11T16:25:47.628Z,99.90
2023-05-11T16:28:15.929Z,99.90
2023-05-11T16:30:44.069Z,99.90
2023-05-11T16:33:12.221Z,99.90
2023-05-11T16:35:42.373Z,99.90
2023-05-11T16:38:17.230Z,99.90
2023-05-11T16:40:45.333Z,99.90
2023-05-11T16:43:16.682Z,99.90
2023-05-11T16:45:44.785Z,99.90
2023-05-11T16:48:13.157Z,99.90
2023-05-11T16:50:44.493Z,99.90
2023-05-11T16:53:12.536Z,99.90
2023-05-11T16:55:41.792Z,99.90
2023-05-11T16:58:10.245Z,99.90
2023-05-11T17:00:38.284Z,99.90
2023-05-11T17:03:06.572Z,99.90
2023-05-11T17:05:35.345Z,99.90
2023-05-11T17:08:04.765Z,99.90
2023-05-11T17:10:32.835Z,99.90
2023-05-11T17:13:02.858Z,99.90
2023-05-11T17:15:31.654Z,99.90
2023-05-11T17:18:00.058Z,99.90
2023-05-11T17:20:28.142Z,99.90
2023-05-11T17:22:56.257Z,99.90
2023-05-11T17:25:25.785Z,99.90
2023-05-11T17:27:54.112Z,99.90
2023-05-11T17:30:39.996Z,99.90
2023-05-11T17:33:18.234Z,99.90
2023-05-11T17:35:50.612Z,99.90
2023-05-11T17:38:18.693Z,99.90
2023-05-11T17:40:48.159Z,99.90
2023-05-11T17:43:19.062Z,99.90
2023-05-11T17:45:47.231Z,99.90
2023-05-11T17:48:15.547Z,99.90
2023-05-11T17:50:44.258Z,99.90
2023-05-11T17:53:12.328Z,99.90
2023-05-11T17:55:41.497Z,99.90
2023-05-11T17:58:11.297Z,99.90
2023-05-11T18:00:40.980Z,99.90
2023-05-11T18:03:09.219Z,99.90
2023-05-11T18:05:48.489Z,99.90
2023-05-11T18:08:17.143Z,99.90
2023-05-11T18:10:45.593Z,99.90
2023-05-11T18:13:17.219Z,99.90
2023-05-11T18:15:45.887Z,99.90
2023-05-11T18:18:16.105Z,99.90
2023-05-11T18:20:46.415Z,99.90
2023-05-11T18:23:14.912Z,99.90
2023-05-11T18:25:43.243Z,99.90
2023-05-11T18:28:11.270Z,99.90
2023-05-11T18:30:40.950Z,99.90
2023-05-11T18:33:10.681Z,99.90
2023-05-11T18:35:42.204Z,99.90
2023-05-11T18:38:10.258Z,99.90
2023-05-11T18:40:38.980Z,99.90
2023-05-11T18:43:07.101Z,99.90
2023-05-11T18:45:35.286Z,99.90
2023-05-11T18:48:05.380Z,99.90
2023-05-11T18:50:33.866Z,99.90
2023-05-11T18:53:02.189Z,99.90
2023-05-11T18:55:41.075Z,99.90
2023-05-11T18:58:20.260Z,99.90
2023-05-11T19:00:48.741Z,99.90
2023-05-11T19:03:19.414Z,99.90
2023-05-11T19:05:47.888Z,99.90
2023-05-11T19:08:16.433Z,99.90
2023-05-11T19:10:49.407Z,99.90
2023-05-11T19:13:20.716Z,99.90
2023-05-11T19:15:49.934Z,99.90
2023-05-11T19:18:19.340Z,99.90
2023-05-11T19:20:47.711Z,99.90
2023-05-11T19:23:15.862Z,99.90
2023-05-11T19:25:43.887Z,99.90
2023-05-11T19:28:12.082Z,99.90
2023-05-11T19:30:40.983Z,99.90
2023-05-11T19:33:09.261Z,99.90
2023-05-11T19:35:39.422Z,99.90
2023-05-11T19:38:07.711Z,99.90
2023-05-11T19:43:07.980Z,99.90
2023-05-11T19:45:37.653Z,99.90
2023-05-11T19:48:06.062Z,99.90
2023-05-11T19:50:35.632Z,99.90
2023-05-11T19:53:06.620Z,99.90
2023-05-11T19:55:34.859Z,99.90
2023-05-11T19:58:03.630Z,99.90
2023-05-11T20:00:32.095Z,99.90
2023-05-11T20:03:00.289Z,99.90
2023-05-11T20:05:29.070Z,99.90
2023-05-11T20:07:57.297Z,99.90
2023-05-11T20:10:27.182Z,99.90
2023-05-11T20:12:56.411Z,99.90
2023-05-11T20:15:24.569Z,99.90
2023-05-11T20:17:52.633Z,99.90
2023-05-11T20:20:21.193Z,99.90
2023-05-11T20:22:49.549Z,99.90
2023-05-11T20:25:19.230Z,99.90
2023-05-11T20:27:48.809Z,99.90
2023-05-11T20:30:17.160Z,99.90
2023-05-11T20:35:16.688Z,99.90
2023-05-11T20:37:45.185Z,99.90
2023-05-11T20:40:14.152Z,99.90
2023-05-11T20:42:42.263Z,99.90
2023-05-11T20:45:23.771Z,99.90
2023-05-11T20:47:54.171Z,99.90
2023-05-11T20:50:22.695Z,99.90
2023-05-11T20:52:51.018Z,99.90
2023-05-11T20:55:19.458Z,99.90
2023-05-11T20:57:47.762Z,99.90
2023-05-11T21:00:20.924Z,99.90
2023-05-11T21:02:49.243Z,99.90
2023-05-11T21:05:19.176Z,99.90
2023-05-11T21:07:47.195Z,99.90
2023-05-11T21:10:18.032Z,99.90
2023-05-11T21:12:49.134Z,99.90
2023-05-11T21:15:18.689Z,99.90
2023-05-11T21:17:46.839Z,99.90
2023-05-11T21:20:15.172Z,99.90
2023-05-11T21:22:43.394Z,99.90
2023-05-11T21:25:12.597Z,99.90
2023-05-11T21:27:41.455Z,99.90
2023-05-11T21:30:10.972Z,99.90
2023-05-11T21:32:40.455Z,99.90
2023-05-11T21:35:14.896Z,99.90
2023-05-11T21:37:45.248Z,99.90
2023-05-11T21:40:14.192Z,99.90
2023-05-11T21:42:42.260Z,99.90
2023-05-11T21:45:11.927Z,99.90
2023-05-11T21:47:42.232Z,99.90
2023-05-11T21:50:11.433Z,99.90
2023-05-11T21:52:39.542Z,99.90
2023-05-11T21:55:11.084Z,99.90
2023-05-11T21:57:39.176Z,99.90
2023-05-11T22:00:09.481Z,99.90
2023-05-11T22:02:38.227Z,99.90
2023-05-11T22:05:08.847Z,99.90
2023-05-11T22:07:36.856Z,99.90
2023-05-11T22:10:05.143Z,99.90
2023-05-11T22:12:33.272Z,99.90
2023-05-11T22:15:01.340Z,99.90
2023-05-11T22:17:29.448Z,99.90
2023-05-11T22:19:57.753Z,99.90
2023-05-11T22:22:27.506Z,99.90
2023-05-11T22:24:55.829Z,99.90
2023-05-11T22:27:23.964Z,99.90
2023-05-11T22:29:53.224Z,99.90
2023-05-11T22:32:21.692Z,99.90
2023-05-11T22:34:58.446Z,99.90
2023-05-11T22:37:28.506Z,99.90
2023-05-11T22:39:56.665Z,99.90
2023-05-11T22:42:24.816Z,99.90
2023-05-11T22:44:53.083Z,99.90
2023-05-11T22:47:21.616Z,99.90
2023-05-11T22:49:49.819Z,99.90
2023-05-11T22:52:18.025Z,99.90
2023-05-11T22:54:47.751Z,99.90
2023-05-11T22:57:17.220Z,99.90
2023-05-11T22:59:46.778Z,99.90
2023-05-11T23:02:14.940Z,99.90
2023-05-11T23:04:43.080Z,99.90
2023-05-11T23:07:12.675Z,99.90
2023-05-11T23:09:40.734Z,99.90
2023-05-11T23:12:10.594Z,99.90
2023-05-11T23:14:38.793Z,99.90
2023-05-11T23:17:06.921Z,99.90
2023-05-11T23:19:35.218Z,99.90
2023-05-11T23:22:03.596Z,99.90
2023-05-11T23:24:32.049Z,99.90
2023-05-11T23:27:00.146Z,99.90
2023-05-11T23:29:29.715Z,99.90
2023-05-11T23:31:57.826Z,99.90
2023-05-11T23:34:26.344Z,99.90
2023-05-11T23:36:54.807Z,99.90
2023-05-11T23:39:22.999Z,99.90
2023-05-11T23:41:51.378Z,99.90
2023-05-11T23:44:20.225Z,99.90
2023-05-11T23:46:49.778Z,99.90
2023-05-11T23:49:18.383Z,99.90
2023-05-11T23:51:46.934Z,99.90
2023-05-11T23:54:14.991Z,99.90
2023-05-11T23:56:44.335Z,99.90
2023-05-11T23:59:14.539Z,99.90
